sensor_id;sensor_type;location;lat;lon;timestamp;pressure;altitude;pressure_sealevel;temperature;humidity
68197;BME280;55019;49.382;11.358;2023-03-03T00:02:22;96715.31;;;3.67;60.05
68197;BME280;55019;49.382;11.358;2023-03-03T00:04:47;96710.19;;;3.67;58.60
68197;BME280;55019;49.382;11.358;2023-03-03T00:07:13;96713.34;;;3.49;58.55
68197;BME280;55019;49.382;11.358;2023-03-03T00:09:46;96710.91;;;3.47;58.76
68197;BME280;55019;49.382;11.358;2023-03-03T00:12:20;96710.00;;;3.37;59.09
68197;BME280;55019;49.382;11.358;2023-03-03T00:14:47;96708.00;;;3.30;58.91
68197;BME280;55019;49.382;11.358;2023-03-03T00:17:24;96707.00;;;3.32;58.90
68197;BME280;55019;49.382;11.358;2023-03-03T00:19:51;96700.34;;;3.19;58.92
68197;BME280;55019;49.382;11.358;2023-03-03T00:22:29;96719.25;;;3.05;59.60
68197;BME280;55019;49.382;11.358;2023-03-03T00:25:28;96716.25;;;3.22;59.84
68197;BME280;55019;49.382;11.358;2023-03-03T00:27:54;96713.22;;;3.17;58.89
68197;BME280;55019;49.382;11.358;2023-03-03T00:30:24;96718.53;;;2.92;59.67
68197;BME280;55019;49.382;11.358;2023-03-03T00:32:51;96718.09;;;2.98;59.52
68197;BME280;55019;49.382;11.358;2023-03-03T00:35:30;96721.56;;;2.97;60.10
68197;BME280;55019;49.382;11.358;2023-03-03T00:38:18;96722.13;;;3.01;59.12
68197;BME280;55019;49.382;11.358;2023-03-03T00:40:45;96720.16;;;2.93;59.19
68197;BME280;55019;49.382;11.358;2023-03-03T00:43:21;96718.53;;;2.92;60.00
68197;BME280;55019;49.382;11.358;2023-03-03T00:45:49;96726.91;;;2.94;58.79
68197;BME280;55019;49.382;11.358;2023-03-03T00:50:45;96732.69;;;2.85;59.36
68197;BME280;55019;49.382;11.358;2023-03-03T00:53:15;96733.34;;;2.77;59.77
68197;BME280;55019;49.382;11.358;2023-03-03T00:55:42;96733.78;;;2.71;60.09
68197;BME280;55019;49.382;11.358;2023-03-03T00:58:08;96737.72;;;2.64;59.77
68197;BME280;55019;49.382;11.358;2023-03-03T01:00:40;96739.75;;;2.48;61.16
68197;BME280;55019;49.382;11.358;2023-03-03T01:03:12;96738.81;;;2.49;61.77
68197;BME280;55019;49.382;11.358;2023-03-03T01:05:39;96739.34;;;2.41;61.50
68197;BME280;55019;49.382;11.358;2023-03-03T01:08:05;96743.19;;;2.36;62.40
68197;BME280;55019;49.382;11.358;2023-03-03T01:10:33;96732.75;;;2.39;61.71
68197;BME280;55019;49.382;11.358;2023-03-03T01:13:01;96734.88;;;2.45;63.06
68197;BME280;55019;49.382;11.358;2023-03-03T01:15:27;96734.16;;;2.43;62.65
68197;BME280;55019;49.382;11.358;2023-03-03T01:17:53;96719.53;;;2.34;62.98
68197;BME280;55019;49.382;11.358;2023-03-03T01:20:19;96718.59;;;2.35;63.46
68197;BME280;55019;49.382;11.358;2023-03-03T01:22:45;96710.97;;;2.35;62.71
68197;BME280;55019;49.382;11.358;2023-03-03T01:25:11;96708.81;;;2.29;62.95
68197;BME280;55019;49.382;11.358;2023-03-03T01:27:37;96718.47;;;2.36;62.49
68197;BME280;55019;49.382;11.358;2023-03-03T01:30:04;96716.19;;;2.21;62.68
68197;BME280;55019;49.382;11.358;2023-03-03T01:32:31;96712.84;;;2.20;63.10
68197;BME280;55019;49.382;11.358;2023-03-03T01:34:57;96713.50;;;2.11;63.63
68197;BME280;55019;49.382;11.358;2023-03-03T01:37:22;96715.25;;;2.11;63.18
68197;BME280;55019;49.382;11.358;2023-03-03T01:39:50;96718.22;;;2.05;63.22
68197;BME280;55019;49.382;11.358;2023-03-03T01:42:16;96714.91;;;2.15;61.98
68197;BME280;55019;49.382;11.358;2023-03-03T01:44:42;96722.09;;;2.10;61.87
68197;BME280;55019;49.382;11.358;2023-03-03T01:47:15;96721.03;;;2.13;61.79
68197;BME280;55019;49.382;11.358;2023-03-03T01:49:56;96712.25;;;1.93;62.49
68197;BME280;55019;49.382;11.358;2023-03-03T01:52:38;96715.06;;;2.01;62.72
68197;BME280;55019;49.382;11.358;2023-03-03T01:55:11;96706.63;;;2.01;62.27
68197;BME280;55019;49.382;11.358;2023-03-03T01:57:43;96709.16;;;1.77;63.18
68197;BME280;55019;49.382;11.358;2023-03-03T02:00:11;96698.34;;;1.74;63.22
68197;BME280;55019;49.382;11.358;2023-03-03T02:08:18;96700.03;;;1.62;62.74
68197;BME280;55019;49.382;11.358;2023-03-03T02:10:46;96704.09;;;1.65;63.41
68197;BME280;55019;49.382;11.358;2023-03-03T02:13:13;96702.88;;;1.58;63.45
68197;BME280;55019;49.382;11.358;2023-03-03T02:15:38;96715.75;;;1.44;64.14
68197;BME280;55019;49.382;11.358;2023-03-03T02:18:05;96712.50;;;1.30;65.05
68197;BME280;55019;49.382;11.358;2023-03-03T02:23:28;96713.22;;;1.19;65.74
68197;BME280;55019;49.382;11.358;2023-03-03T02:28:23;96708.53;;;1.13;65.51
68197;BME280;55019;49.382;11.358;2023-03-03T02:30:54;96723.00;;;1.00;65.80
68197;BME280;55019;49.382;11.358;2023-03-03T02:33:21;96709.66;;;1.09;65.33
68197;BME280;55019;49.382;11.358;2023-03-03T02:35:47;96708.25;;;1.18;64.85
68197;BME280;55019;49.382;11.358;2023-03-03T02:44:00;96710.91;;;1.04;65.97
68197;BME280;55019;49.382;11.358;2023-03-03T02:46:30;96708.25;;;0.80;66.45
68197;BME280;55019;49.382;11.358;2023-03-03T02:48:59;96714.56;;;0.75;66.59
68197;BME280;55019;49.382;11.358;2023-03-03T02:51:24;96707.84;;;0.74;67.26
68197;BME280;55019;49.382;11.358;2023-03-03T02:53:50;96709.03;;;0.68;67.08
68197;BME280;55019;49.382;11.358;2023-03-03T02:56:16;96702.84;;;0.85;66.61
68197;BME280;55019;49.382;11.358;2023-03-03T02:58:42;96706.00;;;0.63;67.89
68197;BME280;55019;49.382;11.358;2023-03-03T03:01:08;96704.25;;;0.76;67.53
68197;BME280;55019;49.382;11.358;2023-03-03T03:03:34;96710.47;;;0.72;67.70
68197;BME280;55019;49.382;11.358;2023-03-03T03:06:02;96714.22;;;0.54;67.89
68197;BME280;55019;49.382;11.358;2023-03-03T03:08:28;96712.91;;;0.61;67.65
68197;BME280;55019;49.382;11.358;2023-03-03T03:10:55;96719.22;;;0.68;67.14
68197;BME280;55019;49.382;11.358;2023-03-03T03:13:23;96719.78;;;0.47;67.69
68197;BME280;55019;49.382;11.358;2023-03-03T03:15:50;96709.97;;;0.67;66.59
68197;BME280;55019;49.382;11.358;2023-03-03T03:18:16;96705.88;;;0.52;67.07
68197;BME280;55019;49.382;11.358;2023-03-03T03:20:43;96704.44;;;0.48;67.16
68197;BME280;55019;49.382;11.358;2023-03-03T03:23:10;96697.63;;;0.49;67.92
68197;BME280;55019;49.382;11.358;2023-03-03T03:25:36;96711.03;;;0.38;68.25
68197;BME280;55019;49.382;11.358;2023-03-03T03:28:07;96706.88;;;0.50;67.57
68197;BME280;55019;49.382;11.358;2023-03-03T03:30:34;96704.88;;;0.16;68.33
68197;BME280;55019;49.382;11.358;2023-03-03T03:33:01;96706.91;;;0.23;68.45
68197;BME280;55019;49.382;11.358;2023-03-03T03:35:27;96706.91;;;0.23;68.80
68197;BME280;55019;49.382;11.358;2023-03-03T03:37:53;96709.19;;;0.28;68.59
68197;BME280;55019;49.382;11.358;2023-03-03T03:40:20;96711.00;;;0.26;67.88
68197;BME280;55019;49.382;11.358;2023-03-03T03:42:45;96711.41;;;0.20;68.32
68197;BME280;55019;49.382;11.358;2023-03-03T03:45:12;96719.50;;;0.12;68.65
68197;BME280;55019;49.382;11.358;2023-03-03T03:47:44;96722.09;;;-0.02;69.61
68197;BME280;55019;49.382;11.358;2023-03-03T03:50:10;96707.72;;;0.11;68.46
68197;BME280;55019;49.382;11.358;2023-03-03T03:52:37;96726.22;;;0.13;68.18
68197;BME280;55019;49.382;11.358;2023-03-03T03:55:04;96734.06;;;-0.03;69.04
68197;BME280;55019;49.382;11.358;2023-03-03T03:57:30;96726.47;;;-0.03;69.77
68197;BME280;55019;49.382;11.358;2023-03-03T03:59:56;96737.25;;;0.00;69.33
68197;BME280;55019;49.382;11.358;2023-03-03T04:02:22;96724.81;;;-0.04;69.31
68197;BME280;55019;49.382;11.358;2023-03-03T04:04:48;96732.53;;;-0.06;69.08
68197;BME280;55019;49.382;11.358;2023-03-03T04:07:14;96731.41;;;-0.14;70.00
68197;BME280;55019;49.382;11.358;2023-03-03T04:09:40;96734.66;;;-0.12;70.12
68197;BME280;55019;49.382;11.358;2023-03-03T04:12:06;96729.63;;;0.00;69.48
68197;BME280;55019;49.382;11.358;2023-03-03T04:14:33;96735.78;;;-0.04;69.89
68197;BME280;55019;49.382;11.358;2023-03-03T04:17:00;96730.56;;;-0.15;70.35
68197;BME280;55019;49.382;11.358;2023-03-03T04:19:25;96731.59;;;-0.17;70.16
68197;BME280;55019;49.382;11.358;2023-03-03T04:21:51;96726.06;;;-0.24;70.95
68197;BME280;55019;49.382;11.358;2023-03-03T04:24:17;96726.78;;;-0.22;70.27
68197;BME280;55019;49.382;11.358;2023-03-03T04:26:45;96725.25;;;-0.24;70.82
68197;BME280;55019;49.382;11.358;2023-03-03T04:29:11;96725.78;;;-0.33;71.10
68197;BME280;55019;49.382;11.358;2023-03-03T04:31:38;96723.13;;;-0.18;69.94
68197;BME280;55019;49.382;11.358;2023-03-03T04:34:06;96728.94;;;-0.16;69.66
68197;BME280;55019;49.382;11.358;2023-03-03T04:36:32;96732.00;;;-0.11;69.73
68197;BME280;55019;49.382;11.358;2023-03-03T04:38:58;96736.28;;;-0.11;70.27
68197;BME280;55019;49.382;11.358;2023-03-03T04:41:24;96739.91;;;-0.15;70.25
68197;BME280;55019;49.382;11.358;2023-03-03T04:43:51;96738.28;;;-0.16;70.67
68197;BME280;55019;49.382;11.358;2023-03-03T04:46:17;96746.44;;;-0.11;70.52
68197;BME280;55019;49.382;11.358;2023-03-03T04:48:42;96737.38;;;-0.29;71.62
68197;BME280;55019;49.382;11.358;2023-03-03T04:51:09;96741.78;;;-0.45;72.08
68197;BME280;55019;49.382;11.358;2023-03-03T04:53:36;96736.09;;;-0.49;72.38
68197;BME280;55019;49.382;11.358;2023-03-03T04:56:03;96739.81;;;-0.68;73.33
68197;BME280;55019;49.382;11.358;2023-03-03T04:58:30;96741.34;;;-0.66;73.02
68197;BME280;55019;49.382;11.358;2023-03-03T05:00:56;96742.63;;;-0.73;73.52
68197;BME280;55019;49.382;11.358;2023-03-03T05:03:25;96739.16;;;-0.72;73.15
68197;BME280;55019;49.382;11.358;2023-03-03T05:05:52;96737.44;;;-0.57;72.55
68197;BME280;55019;49.382;11.358;2023-03-03T05:08:18;96734.66;;;-0.81;73.75
68197;BME280;55019;49.382;11.358;2023-03-03T05:10:43;96734.00;;;-0.84;74.04
68197;BME280;55019;49.382;11.358;2023-03-03T05:13:09;96736.56;;;-0.70;73.38
68197;BME280;55019;49.382;11.358;2023-03-03T05:15:35;96746.97;;;-0.89;74.40
68197;BME280;55019;49.382;11.358;2023-03-03T05:18:01;96756.84;;;-0.70;72.96
68197;BME280;55019;49.382;11.358;2023-03-03T05:20:26;96749.59;;;-0.62;72.93
68197;BME280;55019;49.382;11.358;2023-03-03T05:22:52;96751.56;;;-0.81;73.40
68197;BME280;55019;49.382;11.358;2023-03-03T05:25:20;96761.09;;;-0.85;74.10
68197;BME280;55019;49.382;11.358;2023-03-03T05:27:45;96749.94;;;-0.96;73.57
68197;BME280;55019;49.382;11.358;2023-03-03T05:30:11;96757.38;;;-0.79;74.25
68197;BME280;55019;49.382;11.358;2023-03-03T05:32:37;96753.38;;;-0.97;74.33
68197;BME280;55019;49.382;11.358;2023-03-03T05:35:04;96752.16;;;-0.76;73.46
68197;BME280;55019;49.382;11.358;2023-03-03T05:37:30;96743.44;;;-0.72;73.55
68197;BME280;55019;49.382;11.358;2023-03-03T05:39:56;96742.25;;;-0.67;72.52
68197;BME280;55019;49.382;11.358;2023-03-03T05:42:21;96751.78;;;-0.70;73.20
68197;BME280;55019;49.382;11.358;2023-03-03T05:44:47;96756.03;;;-0.71;72.59
68197;BME280;55019;49.382;11.358;2023-03-03T05:47:13;96750.22;;;-0.73;72.19
68197;BME280;55019;49.382;11.358;2023-03-03T05:49:39;96753.78;;;-0.75;71.83
68197;BME280;55019;49.382;11.358;2023-03-03T05:52:05;96757.47;;;-0.67;72.01
68197;BME280;55019;49.382;11.358;2023-03-03T05:54:31;96759.19;;;-0.81;72.45
68197;BME280;55019;49.382;11.358;2023-03-03T05:56:56;96765.28;;;-0.98;73.95
68197;BME280;55019;49.382;11.358;2023-03-03T05:59:23;96766.63;;;-0.92;74.45
68197;BME280;55019;49.382;11.358;2023-03-03T06:01:49;96764.97;;;-0.93;74.26
68197;BME280;55019;49.382;11.358;2023-03-03T06:04:15;96768.72;;;-0.85;73.53
68197;BME280;55019;49.382;11.358;2023-03-03T06:06:41;96776.13;;;-0.68;73.08
68197;BME280;55019;49.382;11.358;2023-03-03T06:09:06;96778.78;;;-0.69;74.02
68197;BME280;55019;49.382;11.358;2023-03-03T06:11:32;96782.22;;;-0.70;74.44
68197;BME280;55019;49.382;11.358;2023-03-03T06:13:58;96784.56;;;-0.53;74.60
68197;BME280;55019;49.382;11.358;2023-03-03T06:16:23;96788.28;;;-0.45;74.15
68197;BME280;55019;49.382;11.358;2023-03-03T06:18:49;96781.13;;;-0.24;73.49
68197;BME280;55019;49.382;11.358;2023-03-03T06:21:15;96799.47;;;-0.07;72.91
68197;BME280;55019;49.382;11.358;2023-03-03T06:23:40;96795.25;;;0.20;72.38
68197;BME280;55019;49.382;11.358;2023-03-03T06:26:06;96795.91;;;0.09;72.35
68197;BME280;55019;49.382;11.358;2023-03-03T06:28:32;96795.84;;;0.37;71.44
68197;BME280;55019;49.382;11.358;2023-03-03T06:30:57;96796.28;;;0.56;70.70
68197;BME280;55019;49.382;11.358;2023-03-03T06:33:23;96809.59;;;0.47;70.93
68197;BME280;55019;49.382;11.358;2023-03-03T06:35:50;96801.56;;;0.53;70.88
68197;BME280;55019;49.382;11.358;2023-03-03T06:38:16;96814.94;;;0.69;70.61
68197;BME280;55019;49.382;11.358;2023-03-03T06:40:42;96815.66;;;0.71;69.83
68197;BME280;55019;49.382;11.358;2023-03-03T06:43:08;96820.09;;;0.94;69.83
68197;BME280;55019;49.382;11.358;2023-03-03T06:45:34;96831.94;;;1.08;68.41
68197;BME280;55019;49.382;11.358;2023-03-03T06:48:00;96827.22;;;1.14;68.25
68197;BME280;55019;49.382;11.358;2023-03-03T06:50:26;96823.69;;;1.29;67.43
68197;BME280;55019;49.382;11.358;2023-03-03T06:53:13;96824.31;;;1.33;68.00
68197;BME280;55019;49.382;11.358;2023-03-03T06:55:39;96821.47;;;1.37;67.96
68197;BME280;55019;49.382;11.358;2023-03-03T06:58:12;96830.00;;;1.61;66.91
68197;BME280;55019;49.382;11.358;2023-03-03T07:00:41;96829.66;;;1.90;66.11
68197;BME280;55019;49.382;11.358;2023-03-03T07:03:14;96829.34;;;2.07;64.99
68197;BME280;55019;49.382;11.358;2023-03-03T07:05:41;96828.78;;;2.15;64.07
68197;BME280;55019;49.382;11.358;2023-03-03T07:08:15;96827.38;;;2.11;62.50
68197;BME280;55019;49.382;11.358;2023-03-03T07:10:42;96827.88;;;1.67;65.39
68197;BME280;55019;49.382;11.358;2023-03-03T07:13:26;96829.56;;;1.92;64.80
68197;BME280;55019;49.382;11.358;2023-03-03T07:15:53;96834.59;;;2.17;64.10
68197;BME280;55019;49.382;11.358;2023-03-03T07:18:57;96832.91;;;2.41;62.17
68197;BME280;55019;49.382;11.358;2023-03-03T07:21:36;96833.41;;;2.46;61.67
68197;BME280;55019;49.382;11.358;2023-03-03T07:24:25;96839.88;;;2.62;61.74
68197;BME280;55019;49.382;11.358;2023-03-03T07:26:56;96844.66;;;2.78;61.49
68197;BME280;55019;49.382;11.358;2023-03-03T07:29:26;96853.81;;;2.92;61.24
68197;BME280;55019;49.382;11.358;2023-03-03T07:31:53;96839.19;;;2.94;61.16
68197;BME280;55019;49.382;11.358;2023-03-03T07:34:37;96855.03;;;3.10;61.85
68197;BME280;55019;49.382;11.358;2023-03-03T07:39:53;96841.66;;;3.41;58.69
68197;BME280;55019;49.382;11.358;2023-03-03T07:45:00;96847.16;;;3.59;57.89
68197;BME280;55019;49.382;11.358;2023-03-03T07:47:30;96854.44;;;3.74;57.84
68197;BME280;55019;49.382;11.358;2023-03-03T07:50:00;96844.81;;;3.89;57.59
68197;BME280;55019;49.382;11.358;2023-03-03T07:52:49;96840.66;;;4.10;56.24
68197;BME280;55019;49.382;11.358;2023-03-03T08:03:44;96864.66;;;4.51;54.53
68197;BME280;55019;49.382;11.358;2023-03-03T08:06:46;96871.34;;;4.74;53.91
68197;BME280;55019;49.382;11.358;2023-03-03T08:11:52;96876.22;;;4.88;55.05
68197;BME280;55019;49.382;11.358;2023-03-03T08:14:25;96869.06;;;5.23;54.09
68197;BME280;55019;49.382;11.358;2023-03-03T08:16:51;96865.91;;;5.51;53.28
68197;BME280;55019;49.382;11.358;2023-03-03T08:19:17;96881.56;;;5.77;52.87
68197;BME280;55019;49.382;11.358;2023-03-03T08:21:43;96889.09;;;6.10;50.00
68197;BME280;55019;49.382;11.358;2023-03-03T08:24:09;96880.56;;;6.40;50.42
68197;BME280;55019;49.382;11.358;2023-03-03T08:26:34;96882.75;;;6.44;48.84
68197;BME280;55019;49.382;11.358;2023-03-03T08:29:00;96879.22;;;5.65;50.74
68197;BME280;55019;49.382;11.358;2023-03-03T08:31:26;96871.88;;;6.31;49.44
68197;BME280;55019;49.382;11.358;2023-03-03T08:33:51;96864.78;;;6.14;48.99
68197;BME280;55019;49.382;11.358;2023-03-03T08:36:18;96876.16;;;6.70;49.11
68197;BME280;55019;49.382;11.358;2023-03-03T08:38:43;96886.47;;;6.80;48.30
68197;BME280;55019;49.382;11.358;2023-03-03T08:41:09;96880.97;;;7.31;47.71
68197;BME280;55019;49.382;11.358;2023-03-03T08:43:35;96882.06;;;7.48;46.55
68197;BME280;55019;49.382;11.358;2023-03-03T08:46:02;96894.66;;;8.06;44.25
68197;BME280;55019;49.382;11.358;2023-03-03T08:48:30;96885.69;;;8.83;44.81
68197;BME280;55019;49.382;11.358;2023-03-03T08:50:57;96886.66;;;10.45;40.80
68197;BME280;55019;49.382;11.358;2023-03-03T08:53:23;96890.16;;;11.35;38.31
68197;BME280;55019;49.382;11.358;2023-03-03T08:55:49;96883.06;;;11.61;37.17
68197;BME280;55019;49.382;11.358;2023-03-03T08:58:18;96881.59;;;11.90;37.19
68197;BME280;55019;49.382;11.358;2023-03-03T09:00:44;96890.94;;;13.16;35.53
68197;BME280;55019;49.382;11.358;2023-03-03T09:03:10;96884.84;;;13.31;33.96
68197;BME280;55019;49.382;11.358;2023-03-03T09:05:37;96882.09;;;13.70;33.13
68197;BME280;55019;49.382;11.358;2023-03-03T09:08:04;96879.47;;;13.92;33.11
68197;BME280;55019;49.382;11.358;2023-03-03T09:10:31;96881.81;;;14.39;31.91
68197;BME280;55019;49.382;11.358;2023-03-03T09:13:00;96868.34;;;14.78;30.88
68197;BME280;55019;49.382;11.358;2023-03-03T09:15:31;96874.00;;;14.82;30.63
68197;BME280;55019;49.382;11.358;2023-03-03T09:18:04;96867.44;;;15.21;29.33
68197;BME280;55019;49.382;11.358;2023-03-03T09:20:43;96868.84;;;15.38;30.32
68197;BME280;55019;49.382;11.358;2023-03-03T09:23:35;96874.31;;;14.93;30.32
68197;BME280;55019;49.382;11.358;2023-03-03T09:28:39;96877.69;;;15.65;29.50
68197;BME280;55019;49.382;11.358;2023-03-03T09:31:20;96855.72;;;15.74;28.85
68197;BME280;55019;49.382;11.358;2023-03-03T09:33:48;96859.50;;;15.92;29.02
68197;BME280;55019;49.382;11.358;2023-03-03T09:36:24;96857.72;;;16.47;28.05
68197;BME280;55019;49.382;11.358;2023-03-03T09:38:51;96866.59;;;16.32;28.36
68197;BME280;55019;49.382;11.358;2023-03-03T09:47:14;96880.81;;;16.57;28.86
68197;BME280;55019;49.382;11.358;2023-03-03T10:06:28;96893.31;;;18.00;25.85
68197;BME280;55019;49.382;11.358;2023-03-03T10:20:34;96900.56;;;18.50;25.01
68197;BME280;55019;49.382;11.358;2023-03-03T10:22:55;96900.38;;;18.00;26.10
68197;BME280;55019;49.382;11.358;2023-03-03T10:25:41;96882.00;;;18.65;24.96
68197;BME280;55019;49.382;11.358;2023-03-03T10:41:57;96881.56;;;20.24;23.43
68197;BME280;55019;49.382;11.358;2023-03-03T10:51:04;96883.16;;;20.49;21.79
68197;BME280;55019;49.382;11.358;2023-03-03T11:02:27;96880.28;;;22.33;21.02
68197;BME280;55019;49.382;11.358;2023-03-03T11:05:39;96875.28;;;21.21;21.17
68197;BME280;55019;49.382;11.358;2023-03-03T11:13:38;96873.69;;;21.49;21.78
68197;BME280;55019;49.382;11.358;2023-03-03T11:21:33;96891.31;;;20.41;23.05
68197;BME280;55019;49.382;11.358;2023-03-03T11:27:07;96882.91;;;20.93;22.51
68197;BME280;55019;49.382;11.358;2023-03-03T11:32:32;96878.41;;;20.57;23.93
68197;BME280;55019;49.382;11.358;2023-03-03T11:37:49;96880.03;;;21.30;22.23
68197;BME280;55019;49.382;11.358;2023-03-03T11:40:26;96869.44;;;22.64;20.37
68197;BME280;55019;49.382;11.358;2023-03-03T11:43:18;96880.97;;;22.29;20.86
68197;BME280;55019;49.382;11.358;2023-03-03T11:45:49;96870.03;;;21.50;22.18
68197;BME280;55019;49.382;11.358;2023-03-03T11:51:05;96858.34;;;23.02;21.06
68197;BME280;55019;49.382;11.358;2023-03-03T11:56:42;96853.84;;;22.63;20.53
68197;BME280;55019;49.382;11.358;2023-03-03T12:04:40;96856.81;;;21.27;21.63
68197;BME280;55019;49.382;11.358;2023-03-03T12:07:40;96857.75;;;21.62;22.21
68197;BME280;55019;49.382;11.358;2023-03-03T12:10:18;96851.47;;;22.50;20.31
68197;BME280;55019;49.382;11.358;2023-03-03T12:18:43;96839.66;;;23.15;19.24
68197;BME280;55019;49.382;11.358;2023-03-03T12:26:41;96839.47;;;22.93;20.27
68197;BME280;55019;49.382;11.358;2023-03-03T12:48:42;96819.03;;;21.81;22.04
68197;BME280;55019;49.382;11.358;2023-03-03T13:02:25;96806.75;;;25.24;17.83
68197;BME280;55019;49.382;11.358;2023-03-03T13:08:00;96815.78;;;23.33;18.89
68197;BME280;55019;49.382;11.358;2023-03-03T13:16:13;96810.88;;;23.41;18.81
68197;BME280;55019;49.382;11.358;2023-03-03T13:24:18;96805.94;;;25.50;18.17
68197;BME280;55019;49.382;11.358;2023-03-03T13:26:57;96803.88;;;24.83;18.38
68197;BME280;55019;49.382;11.358;2023-03-03T13:31:54;96797.09;;;25.93;17.47
68197;BME280;55019;49.382;11.358;2023-03-03T13:34:36;96800.34;;;23.25;19.97
68197;BME280;55019;49.382;11.358;2023-03-03T13:39:50;96811.53;;;20.78;22.98
68197;BME280;55019;49.382;11.358;2023-03-03T13:42:26;96806.78;;;21.04;22.40
68197;BME280;55019;49.382;11.358;2023-03-03T13:44:55;96803.81;;;22.17;21.30
68197;BME280;55019;49.382;11.358;2023-03-03T13:47:47;96801.28;;;22.68;21.26
68197;BME280;55019;49.382;11.358;2023-03-03T13:50:44;96778.13;;;23.81;19.20
68197;BME280;55019;49.382;11.358;2023-03-03T13:53:29;96793.09;;;23.64;19.44
68197;BME280;55019;49.382;11.358;2023-03-03T14:01:22;96786.41;;;24.82;18.34
68197;BME280;55019;49.382;11.358;2023-03-03T14:06:25;96775.47;;;24.52;18.29
68197;BME280;55019;49.382;11.358;2023-03-03T14:09:14;96768.44;;;24.41;17.93
68197;BME280;55019;49.382;11.358;2023-03-03T14:11:48;96776.00;;;22.95;19.35
68197;BME280;55019;49.382;11.358;2023-03-03T14:17:31;96776.91;;;23.28;19.77
68197;BME280;55019;49.382;11.358;2023-03-03T14:23:30;96765.13;;;24.13;18.98
68197;BME280;55019;49.382;11.358;2023-03-03T14:28:20;96763.94;;;23.54;19.33
68197;BME280;55019;49.382;11.358;2023-03-03T14:30:46;96754.06;;;24.32;18.54
68197;BME280;55019;49.382;11.358;2023-03-03T14:35:41;96756.34;;;24.07;19.17
68197;BME280;55019;49.382;11.358;2023-03-03T14:40:35;96762.47;;;25.41;17.24
68197;BME280;55019;49.382;11.358;2023-03-03T14:43:17;96768.22;;;23.28;19.05
68197;BME280;55019;49.382;11.358;2023-03-03T14:45:43;96754.78;;;21.36;21.01
68197;BME280;55019;49.382;11.358;2023-03-03T14:50:37;96769.34;;;20.26;22.69
68197;BME280;55019;49.382;11.358;2023-03-03T14:53:14;96760.31;;;21.57;21.24
68197;BME280;55019;49.382;11.358;2023-03-03T14:55:42;96762.19;;;21.27;20.63
68197;BME280;55019;49.382;11.358;2023-03-03T14:58:33;96766.09;;;20.59;22.53
68197;BME280;55019;49.382;11.358;2023-03-03T15:01:33;96762.44;;;20.96;22.11
68197;BME280;55019;49.382;11.358;2023-03-03T15:04:04;96765.56;;;21.57;21.34
68197;BME280;55019;49.382;11.358;2023-03-03T15:06:42;96758.19;;;21.89;20.60
68197;BME280;55019;49.382;11.358;2023-03-03T15:12:36;96758.66;;;20.74;21.81
68197;BME280;55019;49.382;11.358;2023-03-03T15:17:36;96749.44;;;18.90;24.22
68197;BME280;55019;49.382;11.358;2023-03-03T15:25:50;96763.81;;;17.27;26.10
68197;BME280;55019;49.382;11.358;2023-03-03T15:31:04;96753.81;;;18.95;23.99
68197;BME280;55019;49.382;11.358;2023-03-03T15:33:55;96750.72;;;18.17;25.22
68197;BME280;55019;49.382;11.358;2023-03-03T15:36:39;96756.63;;;18.63;24.42
68197;BME280;55019;49.382;11.358;2023-03-03T15:39:15;96758.03;;;17.38;26.04
68197;BME280;55019;49.382;11.358;2023-03-03T15:42:04;96762.97;;;17.07;27.12
68197;BME280;55019;49.382;11.358;2023-03-03T15:44:55;96755.88;;;16.28;27.73
68197;BME280;55019;49.382;11.358;2023-03-03T15:52:55;96768.66;;;12.89;33.40
68197;BME280;55019;49.382;11.358;2023-03-03T15:58:22;96770.75;;;11.94;35.12
68197;BME280;55019;49.382;11.358;2023-03-03T16:03:32;96777.94;;;10.80;37.07
68197;BME280;55019;49.382;11.358;2023-03-03T16:11:49;96784.25;;;9.95;39.32
68197;BME280;55019;49.382;11.358;2023-03-03T16:17:42;96786.75;;;9.87;39.40
68197;BME280;55019;49.382;11.358;2023-03-03T16:23:16;96789.91;;;9.73;40.57
68197;BME280;55019;49.382;11.358;2023-03-03T16:31:34;96808.59;;;8.89;42.49
68197;BME280;55019;49.382;11.358;2023-03-03T16:42:25;96812.69;;;8.48;43.21
68197;BME280;55019;49.382;11.358;2023-03-03T16:56:02;96832.38;;;8.03;43.78
68197;BME280;55019;49.382;11.358;2023-03-03T17:06:44;96844.94;;;7.60;44.22
68197;BME280;55019;49.382;11.358;2023-03-03T17:11:58;96852.00;;;7.58;45.88
68197;BME280;55019;49.382;11.358;2023-03-03T17:23:01;96869.19;;;7.48;46.60
68197;BME280;55019;49.382;11.358;2023-03-03T17:25:49;96881.09;;;7.11;47.69
68197;BME280;55019;49.382;11.358;2023-03-03T17:33:57;96889.66;;;6.53;49.10
68197;BME280;55019;49.382;11.358;2023-03-03T17:42:00;96893.81;;;6.45;49.04
68197;BME280;55019;49.382;11.358;2023-03-03T17:44:35;96900.50;;;6.36;49.85
68197;BME280;55019;49.382;11.358;2023-03-03T17:56:04;96919.59;;;6.13;50.64
68197;BME280;55019;49.382;11.358;2023-03-03T18:12:49;96933.31;;;5.82;51.42
68197;BME280;55019;49.382;11.358;2023-03-03T18:15:29;96933.09;;;5.74;51.70
68197;BME280;55019;49.382;11.358;2023-03-03T18:18:04;96931.22;;;5.76;52.20
68197;BME280;55019;49.382;11.358;2023-03-03T18:21:05;96931.34;;;5.55;52.71
68197;BME280;55019;49.382;11.358;2023-03-03T18:23:40;96928.03;;;5.43;52.95
68197;BME280;55019;49.382;11.358;2023-03-03T18:26:30;96940.31;;;5.29;53.50
68197;BME280;55019;49.382;11.358;2023-03-03T18:32:32;96941.63;;;5.23;53.65
68197;BME280;55019;49.382;11.358;2023-03-03T18:34:40;96942.13;;;5.17;54.36
68197;BME280;55019;49.382;11.358;2023-03-03T18:42:34;96938.34;;;4.90;55.09
68197;BME280;55019;49.382;11.358;2023-03-03T18:48:14;96947.88;;;4.77;55.74
68197;BME280;55019;49.382;11.358;2023-03-03T18:50:43;96947.22;;;4.64;55.82
68197;BME280;55019;49.382;11.358;2023-03-03T18:55:39;96943.97;;;4.51;56.33
68197;BME280;55019;49.382;11.358;2023-03-03T19:00:46;96954.47;;;4.37;56.17
68197;BME280;55019;49.382;11.358;2023-03-03T19:05:56;96947.00;;;4.34;57.24
68197;BME280;55019;49.382;11.358;2023-03-03T19:08:43;96941.28;;;4.52;56.38